sensor_id;sensor_type;location;lat;lon;timestamp;pressure;altitude;pressure_sealevel;temperature;humidity
58243;BME280;50118;53.232;8.252;2023-05-22T00:01:07;101463.44;;;16.46;100.00
58243;BME280;50118;53.232;8.252;2023-05-22T00:07:21;101459.72;;;16.38;100.00
58243;BME280;50118;53.232;8.252;2023-05-22T00:10:38;101468.13;;;16.43;100.00
58243;BME280;50118;53.232;8.252;2023-05-22T00:16:32;101455.69;;;16.34;100.00
58243;BME280;50118;53.232;8.252;2023-05-22T00:19:37;101457.69;;;16.24;100.00
58243;BME280;50118;53.232;8.252;2023-05-22T00:22:10;101454.31;;;16.22;100.00
58243;BME280;50118;53.232;8.252;2023-05-22T00:25:32;101446.56;;;16.19;100.00
58243;BME280;50118;53.232;8.252;2023-05-22T00:31:19;101448.56;;;16.09;100.00
58243;BME280;50118;53.232;8.252;2023-05-22T00:34:03;101448.53;;;16.00;100.00
58243;BME280;50118;53.232;8.252;2023-05-22T00:36:29;101451.59;;;15.97;100.00
58243;BME280;50118;53.232;8.252;2023-05-22T00:39:01;101440.13;;;15.87;100.00
58243;BME280;50118;53.232;8.252;2023-05-22T00:41:26;101431.72;;;15.82;100.00
58243;BME280;50118;53.232;8.252;2023-05-22T00:44:21;101435.72;;;15.78;100.00
58243;BME280;50118;53.232;8.252;2023-05-22T00:46:48;101432.97;;;15.69;100.00
58243;BME280;50118;53.232;8.252;2023-05-22T00:49:13;101435.34;;;15.73;100.00
58243;BME280;50118;53.232;8.252;2023-05-22T00:51:39;101419.53;;;15.69;100.00
58243;BME280;50118;53.232;8.252;2023-05-22T00:54:05;101427.28;;;15.73;100.00
58243;BME280;50118;53.232;8.252;2023-05-22T00:56:50;101427.13;;;15.74;100.00
58243;BME280;50118;53.232;8.252;2023-05-22T00:59:16;101412.50;;;15.68;100.00
58243;BME280;50118;53.232;8.252;2023-05-22T01:01:45;101414.88;;;15.72;100.00
58243;BME280;50118;53.232;8.252;2023-05-22T01:04:11;101399.06;;;15.68;100.00
58243;BME280;50118;53.232;8.252;2023-05-22T01:06:38;101406.97;;;15.70;100.00
58243;BME280;50118;53.232;8.252;2023-05-22T01:09:38;101401.47;;;15.80;100.00
58243;BME280;50118;53.232;8.252;2023-05-22T01:15:33;101411.06;;;15.82;100.00
58243;BME280;50118;53.232;8.252;2023-05-22T01:20:49;101395.38;;;15.69;100.00
58243;BME280;50118;53.232;8.252;2023-05-22T01:27:02;101399.53;;;15.56;100.00
58243;BME280;50118;53.232;8.252;2023-05-22T01:29:46;101400.19;;;15.49;100.00
58243;BME280;50118;53.232;8.252;2023-05-22T01:32:24;101406.69;;;15.47;100.00
58243;BME280;50118;53.232;8.252;2023-05-22T01:34:58;101401.66;;;15.44;100.00
58243;BME280;50118;53.232;8.252;2023-05-22T01:38:10;101410.72;;;15.43;100.00
58243;BME280;50118;53.232;8.252;2023-05-22T01:40:48;101405.66;;;15.40;100.00
58243;BME280;50118;53.232;8.252;2023-05-22T01:43:23;101400.63;;;15.37;100.00
58243;BME280;50118;53.232;8.252;2023-05-22T01:46:35;101400.94;;;15.34;100.00
58243;BME280;50118;53.232;8.252;2023-05-22T01:49:09;101398.09;;;15.35;100.00
58243;BME280;50118;53.232;8.252;2023-05-22T01:52:05;101396.59;;;15.41;100.00
58243;BME280;50118;53.232;8.252;2023-05-22T01:54:57;101396.94;;;15.46;100.00
58243;BME280;50118;53.232;8.252;2023-05-22T01:58:09;101391.59;;;15.46;100.00
58243;BME280;50118;53.232;8.252;2023-05-22T02:00:45;101388.22;;;15.44;100.00
58243;BME280;50118;53.232;8.252;2023-05-22T02:03:23;101388.91;;;15.46;100.00
58243;BME280;50118;53.232;8.252;2023-05-22T02:05:58;101388.88;;;15.38;100.00
58243;BME280;50118;53.232;8.252;2023-05-22T02:08:24;101381.47;;;15.31;100.00
58243;BME280;50118;53.232;8.252;2023-05-22T02:10:56;101389.47;;;15.23;100.00
58243;BME280;50118;53.232;8.252;2023-05-22T02:13:35;101384.78;;;15.25;100.00
58243;BME280;50118;53.232;8.252;2023-05-22T02:16:34;101387.16;;;15.28;100.00
58243;BME280;50118;53.232;8.252;2023-05-22T02:19:17;101384.00;;;15.33;100.00
58243;BME280;50118;53.232;8.252;2023-05-22T02:21:45;101378.44;;;15.26;100.00
58243;BME280;50118;53.232;8.252;2023-05-22T02:24:12;101393.69;;;15.26;100.00
58243;BME280;50118;53.232;8.252;2023-05-22T02:26:41;101379.41;;;15.17;100.00
58243;BME280;50118;53.232;8.252;2023-05-22T02:29:07;101372.97;;;15.10;100.00
58243;BME280;50118;53.232;8.252;2023-05-22T02:31:33;101373.94;;;15.01;100.00
58243;BME280;50118;53.232;8.252;2023-05-22T02:33:59;101377.59;;;15.00;100.00
58243;BME280;50118;53.232;8.252;2023-05-22T02:36:25;101379.91;;;14.94;100.00
58243;BME280;50118;53.232;8.252;2023-05-22T02:38:53;101367.84;;;14.90;100.00
58243;BME280;50118;53.232;8.252;2023-05-22T02:41:19;101365.16;;;14.90;100.00
58243;BME280;50118;53.232;8.252;2023-05-22T02:43:48;101361.09;;;14.86;100.00
58243;BME280;50118;53.232;8.252;2023-05-22T02:46:13;101365.78;;;14.84;100.00
58243;BME280;50118;53.232;8.252;2023-05-22T02:48:42;101367.63;;;14.84;100.00
58243;BME280;50118;53.232;8.252;2023-05-22T02:51:11;101362.56;;;14.81;100.00
58243;BME280;50118;53.232;8.252;2023-05-22T02:53:36;101370.16;;;14.85;100.00
58243;BME280;50118;53.232;8.252;2023-05-22T02:56:07;101365.31;;;14.89;100.00
58243;BME280;50118;53.232;8.252;2023-05-22T02:58:32;101365.16;;;14.90;100.00
58243;BME280;50118;53.232;8.252;2023-05-22T03:00:58;101365.47;;;14.87;100.00
58243;BME280;50118;53.232;8.252;2023-05-22T03:03:24;101360.78;;;14.89;100.00
58243;BME280;50118;53.232;8.252;2023-05-22T03:05:55;101358.47;;;14.94;100.00
58243;BME280;50118;53.232;8.252;2023-05-22T03:08:26;101365.84;;;14.92;100.00
58243;BME280;50118;53.232;8.252;2023-05-22T03:10:52;101372.03;;;14.93;100.00
58243;BME280;50118;53.232;8.252;2023-05-22T03:13:20;101361.78;;;14.88;100.00
58243;BME280;50118;53.232;8.252;2023-05-22T03:15:59;101370.69;;;14.89;100.00
58243;BME280;50118;53.232;8.252;2023-05-22T03:18:24;101370.16;;;14.85;100.00
58243;BME280;50118;53.232;8.252;2023-05-22T03:20:50;101357.25;;;14.89;100.00
58243;BME280;50118;53.232;8.252;2023-05-22T03:23:19;101352.00;;;14.79;100.00
58243;BME280;50118;53.232;8.252;2023-05-22T03:25:49;101361.00;;;14.70;100.00
58243;BME280;50118;53.232;8.252;2023-05-22T03:28:17;101359.63;;;14.66;100.00
58243;BME280;50118;53.232;8.252;2023-05-22T03:30:43;101363.31;;;14.65;100.00
58243;BME280;50118;53.232;8.252;2023-05-22T03:33:14;101349.53;;;14.60;100.00
58243;BME280;50118;53.232;8.252;2023-05-22T03:35:39;101351.50;;;14.57;100.00
58243;BME280;50118;53.232;8.252;2023-05-22T03:38:13;101350.44;;;14.50;100.00
58243;BME280;50118;53.232;8.252;2023-05-22T03:40:39;101368.72;;;14.55;100.00
58243;BME280;50118;53.232;8.252;2023-05-22T03:43:04;101371.25;;;14.56;100.00
58243;BME280;50118;53.232;8.252;2023-05-22T03:45:34;101365.91;;;14.56;100.00
58243;BME280;50118;53.232;8.252;2023-05-22T03:48:00;101360.53;;;14.56;100.00
58243;BME280;50118;53.232;8.252;2023-05-22T03:50:25;101350.81;;;14.55;100.00
58243;BME280;50118;53.232;8.252;2023-05-22T03:52:51;101348.75;;;14.49;100.00
58243;BME280;50118;53.232;8.252;2023-05-22T03:55:16;101356.66;;;14.51;100.00
58243;BME280;50118;53.232;8.252;2023-05-22T03:57:42;101355.94;;;14.49;100.00
58243;BME280;50118;53.232;8.252;2023-05-22T04:00:08;101357.47;;;14.51;100.00
58243;BME280;50118;53.232;8.252;2023-05-22T04:02:37;101353.81;;;14.52;100.00
58243;BME280;50118;53.232;8.252;2023-05-22T04:05:09;101355.94;;;14.49;100.00
58243;BME280;50118;53.232;8.252;2023-05-22T04:07:35;101353.25;;;14.49;100.00
58243;BME280;50118;53.232;8.252;2023-05-22T04:10:02;101359.34;;;14.51;100.00
58243;BME280;50118;53.232;8.252;2023-05-22T04:12:28;101358.84;;;14.55;100.00
58243;BME280;50118;53.232;8.252;2023-05-22T04:14:54;101366.72;;;14.57;100.00
58243;BME280;50118;53.232;8.252;2023-05-22T04:17:19;101360.53;;;14.56;100.00
58243;BME280;50118;53.232;8.252;2023-05-22T04:19:45;101363.78;;;14.60;100.00
58243;BME280;50118;53.232;8.252;2023-05-22T04:22:10;101361.09;;;14.60;100.00
58243;BME280;50118;53.232;8.252;2023-05-22T04:24:36;101356.88;;;14.57;100.00
58243;BME280;50118;53.232;8.252;2023-05-22T04:27:04;101363.94;;;14.59;100.00
58243;BME280;50118;53.232;8.252;2023-05-22T04:29:30;101365.63;;;14.60;100.00
58243;BME280;50118;53.232;8.252;2023-05-22T04:31:56;101364.97;;;14.66;100.00
58243;BME280;50118;53.232;8.252;2023-05-22T04:34:21;101368.38;;;14.68;100.00
58243;BME280;50118;53.232;8.252;2023-05-22T04:36:50;101378.75;;;14.71;100.00
58243;BME280;50118;53.232;8.252;2023-05-22T04:39:16;101367.03;;;14.72;100.00
58243;BME280;50118;53.232;8.252;2023-05-22T04:41:42;101370.03;;;14.69;100.00
58243;BME280;50118;53.232;8.252;2023-05-22T04:44:08;101352.28;;;14.68;100.00
58243;BME280;50118;53.232;8.252;2023-05-22T04:46:34;101365.19;;;14.72;100.00
58243;BME280;50118;53.232;8.252;2023-05-22T04:49:00;101360.69;;;14.73;100.00
58243;BME280;50118;53.232;8.252;2023-05-22T04:51:28;101349.97;;;14.73;100.00
58243;BME280;50118;53.232;8.252;2023-05-22T04:53:59;101356.69;;;14.77;100.00
58243;BME280;50118;53.232;8.252;2023-05-22T04:56:24;101349.97;;;14.73;100.00
58243;BME280;50118;53.232;8.252;2023-05-22T04:58:52;101359.53;;;14.75;100.00
58243;BME280;50118;53.232;8.252;2023-05-22T05:01:18;101351.00;;;14.80;100.00
58243;BME280;50118;53.232;8.252;2023-05-22T05:03:44;101350.34;;;14.86;100.00
58243;BME280;50118;53.232;8.252;2023-05-22T05:06:09;101348.53;;;14.87;100.00
58243;BME280;50118;53.232;8.252;2023-05-22T05:08:36;101349.44;;;14.96;100.00
58243;BME280;50118;53.232;8.252;2023-05-22T05:11:02;101347.94;;;15.01;100.00
58243;BME280;50118;53.232;8.252;2023-05-22T05:13:28;101340.75;;;15.02;100.00
58243;BME280;50118;53.232;8.252;2023-05-22T05:15:56;101345.06;;;14.94;100.00
58243;BME280;50118;53.232;8.252;2023-05-22T05:18:22;101349.13;;;14.99;100.00
58243;BME280;50118;53.232;8.252;2023-05-22T05:20:52;101342.78;;;15.08;100.00
58243;BME280;50118;53.232;8.252;2023-05-22T05:23:36;101342.16;;;15.14;100.00
58243;BME280;50118;53.232;8.252;2023-05-22T05:26:02;101352.94;;;15.22;100.00
58243;BME280;50118;53.232;8.252;2023-05-22T05:28:28;101357.66;;;15.37;100.00
58243;BME280;50118;53.232;8.252;2023-05-22T05:30:53;101358.38;;;15.47;100.00
58243;BME280;50118;53.232;8.252;2023-05-22T05:33:19;101373.19;;;15.59;100.00
58243;BME280;50118;53.232;8.252;2023-05-22T05:35:44;101362.81;;;15.73;100.00
58243;BME280;50118;53.232;8.252;2023-05-22T05:38:10;101372.63;;;15.90;100.00
58243;BME280;50118;53.232;8.252;2023-05-22T05:40:36;101382.56;;;16.06;100.00
58243;BME280;50118;53.232;8.252;2023-05-22T05:43:01;101375.53;;;16.21;100.00
58243;BME280;50118;53.232;8.252;2023-05-22T05:45:27;101382.75;;;16.37;100.00
58243;BME280;50118;53.232;8.252;2023-05-22T05:47:53;101385.47;;;16.54;100.00
58243;BME280;50118;53.232;8.252;2023-05-22T05:50:22;101393.53;;;16.70;100.00
58243;BME280;50118;53.232;8.252;2023-05-22T05:52:48;101390.47;;;16.81;100.00
58243;BME280;50118;53.232;8.252;2023-05-22T05:55:13;101389.66;;;16.97;100.00
58243;BME280;50118;53.232;8.252;2023-05-22T05:57:39;101398.53;;;17.06;100.00
58243;BME280;50118;53.232;8.252;2023-05-22T06:00:05;101390.31;;;17.08;100.00
58243;BME280;50118;53.232;8.252;2023-05-22T06:02:33;101396.81;;;17.22;100.00
58243;BME280;50118;53.232;8.252;2023-05-22T06:04:58;101393.72;;;17.33;100.00
58243;BME280;50118;53.232;8.252;2023-05-22T06:07:24;101388.22;;;17.66;100.00
58243;BME280;50118;53.232;8.252;2023-05-22T06:09:49;101387.09;;;17.91;100.00
58243;BME280;50118;53.232;8.252;2023-05-22T06:12:21;101384.19;;;18.62;100.00
58243;BME280;50118;53.232;8.252;2023-05-22T06:14:46;101402.06;;;19.01;100.00
58243;BME280;50118;53.232;8.252;2023-05-22T06:17:12;101405.59;;;19.32;97.45
58243;BME280;50118;53.232;8.252;2023-05-22T06:19:37;101402.53;;;19.20;97.61
58243;BME280;50118;53.232;8.252;2023-05-22T06:22:03;101409.03;;;19.40;100.00
58243;BME280;50118;53.232;8.252;2023-05-22T06:24:28;101400.22;;;19.02;96.47
58243;BME280;50118;53.232;8.252;2023-05-22T06:26:56;101398.06;;;18.59;98.89
58243;BME280;50118;53.232;8.252;2023-05-22T06:29:21;101410.03;;;18.34;100.00
58243;BME280;50118;53.232;8.252;2023-05-22T06:31:47;101410.22;;;18.09;100.00
58243;BME280;50118;53.232;8.252;2023-05-22T06:34:12;101418.44;;;17.84;100.00
58243;BME280;50118;53.232;8.252;2023-05-22T06:36:37;101423.31;;;17.41;100.00
58243;BME280;50118;53.232;8.252;2023-05-22T06:39:03;101403.94;;;16.57;100.00
58243;BME280;50118;53.232;8.252;2023-05-22T06:41:32;101391.69;;;16.30;100.00
58243;BME280;50118;53.232;8.252;2023-05-22T06:44:00;101396.50;;;16.01;100.00
58243;BME280;50118;53.232;8.252;2023-05-22T06:46:43;101399.41;;;15.65;100.00
58243;BME280;50118;53.232;8.252;2023-05-22T06:49:43;101404.50;;;15.42;100.00
58243;BME280;50118;53.232;8.252;2023-05-22T06:52:34;101402.94;;;15.31;100.00
58243;BME280;50118;53.232;8.252;2023-05-22T06:55:07;101381.00;;;15.02;100.00
58243;BME280;50118;53.232;8.252;2023-05-22T06:57:41;101369.09;;;15.04;100.00
58243;BME280;50118;53.232;8.252;2023-05-22T07:00:10;101357.53;;;15.04;100.00
58243;BME280;50118;53.232;8.252;2023-05-22T07:02:37;101369.59;;;15.08;100.00
58243;BME280;50118;53.232;8.252;2023-05-22T07:05:09;101381.72;;;15.12;100.00
58243;BME280;50118;53.232;8.252;2023-05-22T07:07:38;101378.34;;;15.10;100.00
58243;BME280;50118;53.232;8.252;2023-05-22T07:13:10;101406.91;;;15.19;100.00
58243;BME280;50118;53.232;8.252;2023-05-22T07:15:45;101414.28;;;15.17;100.00
58243;BME280;50118;53.232;8.252;2023-05-22T07:18:11;101423.31;;;15.16;100.00
58243;BME280;50118;53.232;8.252;2023-05-22T07:20:38;101448.81;;;15.20;100.00
58243;BME280;50118;53.232;8.252;2023-05-22T07:23:33;101460.63;;;15.27;100.00
58243;BME280;50118;53.232;8.252;2023-05-22T07:26:01;101457.91;;;15.19;100.00
58243;BME280;50118;53.232;8.252;2023-05-22T07:28:35;101459.84;;;15.09;100.00
58243;BME280;50118;53.232;8.252;2023-05-22T07:31:12;101452.88;;;14.98;100.00
58243;BME280;50118;53.232;8.252;2023-05-22T07:33:44;101445.94;;;14.87;100.00
58243;BME280;50118;53.232;8.252;2023-05-22T07:36:10;101446.59;;;14.89;100.00
58243;BME280;50118;53.232;8.252;2023-05-22T07:38:41;101444.31;;;14.94;100.00
58243;BME280;50118;53.232;8.252;2023-05-22T07:41:07;101432.44;;;14.79;100.00
58243;BME280;50118;53.232;8.252;2023-05-22T07:43:38;101428.09;;;14.78;100.00
58243;BME280;50118;53.232;8.252;2023-05-22T07:46:04;101428.56;;;14.73;100.00
58243;BME280;50118;53.232;8.252;2023-05-22T07:48:33;101422.22;;;14.74;100.00
58243;BME280;50118;53.232;8.252;2023-05-22T07:50:59;101430.94;;;14.77;100.00
58243;BME280;50118;53.232;8.252;2023-05-22T07:53:31;101423.06;;;14.75;100.00
58243;BME280;50118;53.232;8.252;2023-05-22T07:55:56;101418.47;;;14.49;100.00
58243;BME280;50118;53.232;8.252;2023-05-22T07:58:25;101404.81;;;14.61;100.00
58243;BME280;50118;53.232;8.252;2023-05-22T08:00:51;101392.13;;;14.63;100.00
58243;BME280;50118;53.232;8.252;2023-05-22T08:03:17;101367.69;;;14.48;100.00
58243;BME280;50118;53.232;8.252;2023-05-22T08:05:43;101336.66;;;14.45;100.00
58243;BME280;50118;53.232;8.252;2023-05-22T08:08:09;101321.22;;;14.39;100.00
58243;BME280;50118;53.232;8.252;2023-05-22T08:10:39;101288.84;;;14.32;100.00
58243;BME280;50118;53.232;8.252;2023-05-22T08:13:07;101292.25;;;14.43;100.00
58243;BME280;50118;53.232;8.252;2023-05-22T08:15:41;101288.56;;;14.62;100.00
58243;BME280;50118;53.232;8.252;2023-05-22T08:18:12;101300.00;;;14.72;100.00
58243;BME280;50118;53.232;8.252;2023-05-22T08:20:40;101311.91;;;14.69;100.00
58243;BME280;50118;53.232;8.252;2023-05-22T08:23:08;101337.34;;;14.91;100.00
58243;BME280;50118;53.232;8.252;2023-05-22T08:25:36;101340.91;;;15.00;100.00
58243;BME280;50118;53.232;8.252;2023-05-22T08:28:02;101363.50;;;15.24;100.00
58243;BME280;50118;53.232;8.252;2023-05-22T08:30:38;101355.94;;;15.19;100.00
58243;BME280;50118;53.232;8.252;2023-05-22T08:33:07;101365.69;;;15.28;100.00
58243;BME280;50118;53.232;8.252;2023-05-22T08:35:35;101369.69;;;15.24;100.00
58243;BME280;50118;53.232;8.252;2023-05-22T08:38:04;101387.47;;;15.25;100.00
58243;BME280;50118;53.232;8.252;2023-05-22T08:40:41;101405.88;;;15.20;100.00
58243;BME280;50118;53.232;8.252;2023-05-22T08:43:18;101413.25;;;15.18;100.00
58243;BME280;50118;53.232;8.252;2023-05-22T08:46:10;101414.75;;;15.12;100.00
58243;BME280;50118;53.232;8.252;2023-05-22T08:48:43;101430.19;;;15.19;100.00
58243;BME280;50118;53.232;8.252;2023-05-22T08:51:20;101427.75;;;14.99;100.00
58243;BME280;50118;53.232;8.252;2023-05-22T08:53:51;101418.44;;;14.85;100.00
58243;BME280;50118;53.232;8.252;2023-05-22T08:56:23;101419.34;;;14.76;100.00
58243;BME280;50118;53.232;8.252;2023-05-22T08:58:52;101412.31;;;14.75;100.00
58243;BME280;50118;53.232;8.252;2023-05-22T09:01:19;101404.66;;;14.80;100.00
58243;BME280;50118;53.232;8.252;2023-05-22T09:03:51;101398.63;;;14.86;100.00
58243;BME280;50118;53.232;8.252;2023-05-22T09:06:18;101398.97;;;14.83;100.00
58243;BME280;50118;53.232;8.252;2023-05-22T09:08:44;101397.91;;;14.76;100.00
58243;BME280;50118;53.232;8.252;2023-05-22T09:11:10;101400.56;;;14.76;100.00
58243;BME280;50118;53.232;8.252;2023-05-22T09:13:39;101383.50;;;14.77;100.00
58243;BME280;50118;53.232;8.252;2023-05-22T09:16:10;101390.03;;;14.74;100.00
58243;BME280;50118;53.232;8.252;2023-05-22T09:18:37;101384.81;;;14.73;100.00
58243;BME280;50118;53.232;8.252;2023-05-22T09:21:06;101397.03;;;14.93;100.00
58243;BME280;50118;53.232;8.252;2023-05-22T09:23:37;101407.13;;;15.00;100.00
58243;BME280;50118;53.232;8.252;2023-05-22T09:26:06;101407.47;;;14.97;100.00
58243;BME280;50118;53.232;8.252;2023-05-22T09:28:41;101412.84;;;15.05;100.00
58243;BME280;50118;53.232;8.252;2023-05-22T09:31:11;101417.59;;;15.11;100.00
58243;BME280;50118;53.232;8.252;2023-05-22T09:33:50;101413.69;;;15.31;100.00
58243;BME280;50118;53.232;8.252;2023-05-22T09:36:32;101417.34;;;15.30;100.00
58243;BME280;50118;53.232;8.252;2023-05-22T09:39:09;101407.78;;;15.28;100.00
58243;BME280;50118;53.232;8.252;2023-05-22T09:41:42;101412.34;;;15.36;100.00
58243;BME280;50118;53.232;8.252;2023-05-22T09:44:15;101411.34;;;15.37;100.00
58243;BME280;50118;53.232;8.252;2023-05-22T09:46:46;101409.88;;;15.42;100.00
58243;BME280;50118;53.232;8.252;2023-05-22T09:49:12;101409.13;;;15.58;100.00
58243;BME280;50118;53.232;8.252;2023-05-22T09:51:46;101410.16;;;15.74;100.00
58243;BME280;50118;53.232;8.252;2023-05-22T09:54:34;101416.47;;;15.91;100.00
58243;BME280;50118;53.232;8.252;2023-05-22T09:57:16;101418.31;;;15.98;100.00
58243;BME280;50118;53.232;8.252;2023-05-22T09:59:54;101414.34;;;16.11;100.00
58243;BME280;50118;53.232;8.252;2023-05-22T10:02:28;101416.34;;;16.17;100.00
58243;BME280;50118;53.232;8.252;2023-05-22T10:05:22;101412.31;;;16.13;100.00
58243;BME280;50118;53.232;8.252;2023-05-22T10:07:54;101413.66;;;16.17;100.00
58243;BME280;50118;53.232;8.252;2023-05-22T10:10:29;101406.44;;;16.09;100.00
58243;BME280;50118;53.232;8.252;2023-05-22T10:13:09;101393.34;;;16.14;100.00
58243;BME280;50118;53.232;8.252;2023-05-22T10:16:08;101394.34;;;16.21;100.00
58243;BME280;50118;53.232;8.252;2023-05-22T10:18:45;101396.88;;;16.23;100.00
58243;BME280;50118;53.232;8.252;2023-05-22T10:21:22;101389.50;;;16.41;100.00
58243;BME280;50118;53.232;8.252;2023-05-22T10:23:53;101388.63;;;16.41;100.00
58243;BME280;50118;53.232;8.252;2023-05-22T10:26:22;101400.22;;;16.50;100.00
58243;BME280;50118;53.232;8.252;2023-05-22T10:29:11;101391.50;;;16.39;100.00
58243;BME280;50118;53.232;8.252;2023-05-22T10:31:50;101385.28;;;16.39;100.00
58243;BME280;50118;53.232;8.252;2023-05-22T10:34:37;101381.94;;;16.45;100.00
58243;BME280;50118;53.232;8.252;2023-05-22T10:37:07;101372.50;;;16.49;100.00
58243;BME280;50118;53.232;8.252;2023-05-22T10:42:50;101361.25;;;16.70;100.00
58243;BME280;50118;53.232;8.252;2023-05-22T10:45:47;101370.97;;;16.79;100.00
58243;BME280;50118;53.232;8.252;2023-05-22T10:48:20;101350.13;;;16.81;100.00
58243;BME280;50118;53.232;8.252;2023-05-22T10:50:50;101345.41;;;16.84;100.00
58243;BME280;50118;53.232;8.252;2023-05-22T10:53:29;101357.53;;;16.71;100.00
58243;BME280;50118;53.232;8.252;2023-05-22T10:56:09;101350.13;;;16.65;100.00
58243;BME280;50118;53.232;8.252;2023-05-22T10:58:35;101357.19;;;16.66;100.00
58243;BME280;50118;53.232;8.252;2023-05-22T11:07:14;101340.72;;;16.77;100.00
58243;BME280;50118;53.232;8.252;2023-05-22T11:09:45;101332.09;;;16.82;100.00
58243;BME280;50118;53.232;8.252;2023-05-22T11:12:22;101323.22;;;16.73;100.00
58243;BME280;50118;53.232;8.252;2023-05-22T11:15:00;101321.59;;;16.56;100.00
58243;BME280;50118;53.232;8.252;2023-05-22T11:17:38;101317.19;;;16.63;100.00
58243;BME280;50118;53.232;8.252;2023-05-22T11:20:35;101316.88;;;16.50;100.00
58243;BME280;50118;53.232;8.252;2023-05-22T11:23:23;101316.53;;;16.53;100.00
58243;BME280;50118;53.232;8.252;2023-05-22T11:25:49;101315.22;;;16.49;100.00
58243;BME280;50118;53.232;8.252;2023-05-22T11:28:15;101308.81;;;16.58;100.00
58243;BME280;50118;53.232;8.252;2023-05-22T11:30:47;101315.53;;;16.54;100.00
58243;BME280;50118;53.232;8.252;2023-05-22T11:33:22;101318.22;;;16.62;100.00
58243;BME280;50118;53.232;8.252;2023-05-22T11:35:54;101317.16;;;16.79;100.00
58243;BME280;50118;53.232;8.252;2023-05-22T11:38:34;101305.75;;;16.77;100.00
58243;BME280;50118;53.232;8.252;2023-05-22T11:41:00;101292.97;;;16.88;100.00
58243;BME280;50118;53.232;8.252;2023-05-22T11:43:58;101290.25;;;16.79;100.00
58243;BME280;50118;53.232;8.252;2023-05-22T11:47:37;101281.34;;;16.87;100.00
58243;BME280;50118;53.232;8.252;2023-05-22T11:50:02;101286.75;;;17.27;100.00
58243;BME280;50118;53.232;8.252;2023-05-22T11:52:32;101277.81;;;16.95;100.00
58243;BME280;50118;53.232;8.252;2023-05-22T11:55:10;101275.81;;;17.28;100.00
58243;BME280;50118;53.232;8.252;2023-05-22T11:57:39;101278.72;;;17.18;100.00
58243;BME280;50118;53.232;8.252;2023-05-22T12:00:12;101274.94;;;17.28;100.00
58243;BME280;50118;53.232;8.252;2023-05-22T12:02:50;101276.91;;;17.42;100.00
58243;BME280;50118;53.232;8.252;2023-05-22T12:05:22;101267.91;;;17.27;100.00
58243;BME280;50118;53.232;8.252;2023-05-22T12:07:54;101265.31;;;17.65;100.00
58243;BME280;50118;53.232;8.252;2023-05-22T12:10:31;101266.84;;;17.90;100.00
58243;BME280;50118;53.232;8.252;2023-05-22T12:12:57;101266.84;;;17.90;100.00
58243;BME280;50118;53.232;8.252;2023-05-22T12:15:23;101265.03;;;18.06;100.00
58243;BME280;50118;53.232;8.252;2023-05-22T12:17:48;101256.56;;;18.09;100.00
58243;BME280;50118;53.232;8.252;2023-05-22T12:20:14;101276.75;;;18.13;100.00
58243;BME280;50118;53.232;8.252;2023-05-22T12:22:40;101273.00;;;18.37;100.00
58243;BME280;50118;53.232;8.252;2023-05-22T12:25:14;101279.69;;;18.41;100.00
58243;BME280;50118;53.232;8.252;2023-05-22T12:27:44;101283.91;;;18.44;100.00
58243;BME280;50118;53.232;8.252;2023-05-22T12:30:13;101282.22;;;18.43;100.00
58243;BME280;50118;53.232;8.252;2023-05-22T12:32:39;101271.13;;;18.38;100.00
58243;BME280;50118;53.232;8.252;2023-05-22T12:35:05;101274.31;;;18.41;100.00
58243;BME280;50118;53.232;8.252;2023-05-22T12:37:32;101278.78;;;18.49;100.00
58243;BME280;50118;53.232;8.252;2023-05-22T12:39:59;101271.88;;;18.46;100.00
58243;BME280;50118;53.232;8.252;2023-05-22T12:42:26;101275.69;;;18.52;100.00
58243;BME280;50118;53.232;8.252;2023-05-22T12:44:52;101269.13;;;18.55;100.00
58243;BME280;50118;53.232;8.252;2023-05-22T12:47:22;101276.25;;;18.62;100.00
58243;BME280;50118;53.232;8.252;2023-05-22T12:49:48;101274.88;;;18.66;100.00
58243;BME280;50118;53.232;8.252;2023-05-22T12:52:13;101265.47;;;18.62;100.00
58243;BME280;50118;53.232;8.252;2023-05-22T12:54:39;101276.53;;;18.67;100.00
58243;BME280;50118;53.232;8.252;2023-05-22T12:57:04;101271.81;;;18.70;100.00
58243;BME280;50118;53.232;8.252;2023-05-22T12:59:30;101261.88;;;18.70;100.00
58243;BME280;50118;53.232;8.252;2023-05-22T13:01:56;101260.72;;;18.79;100.00
58243;BME280;50118;53.232;8.252;2023-05-22T13:04:26;101255.63;;;18.70;100.00
58243;BME280;50118;53.232;8.252;2023-05-22T13:06:52;101263.38;;;18.88;100.00
58243;BME280;50118;53.232;8.252;2023-05-22T13:09:17;101262.78;;;18.77;100.00
58243;BME280;50118;53.232;8.252;2023-05-22T13:11:44;101264.94;;;18.82;100.00
58243;BME280;50118;53.232;8.252;2023-05-22T13:14:14;101266.44;;;18.99;100.00
58243;BME280;50118;53.232;8.252;2023-05-22T13:16:39;101260.66;;;19.02;100.00
58243;BME280;50118;53.232;8.252;2023-05-22T13:19:05;101263.72;;;19.14;100.00
58243;BME280;50118;53.232;8.252;2023-05-22T13:21:31;101270.56;;;19.32;100.00
58243;BME280;50118;53.232;8.252;2023-05-22T13:23:56;101262.53;;;19.38;100.00
58243;BME280;50118;53.232;8.252;2023-05-22T13:26:22;101263.91;;;19.49;100.00
58243;BME280;50118;53.232;8.252;2023-05-22T13:28:47;101270.84;;;19.22;100.00
58243;BME280;50118;53.232;8.252;2023-05-22T13:31:13;101257.41;;;19.44;100.00
58243;BME280;50118;53.232;8.252;2023-05-22T13:33:38;101259.31;;;19.28;100.00
58243;BME280;50118;53.232;8.252;2023-05-22T13:36:04;101255.84;;;19.34;100.00